sensor_id;sensor_type;location;lat;lon;timestamp;P1;durP1;ratioP1;P2;durP2;ratioP2
3779;SDS011;1905;52.482;9.802;2023-02-28T00:00:54;7.77;;;3.30;;
3779;SDS011;1905;52.482;9.802;2023-02-28T00:03:23;3.73;;;2.70;;
3779;SDS011;1905;52.482;9.802;2023-02-28T00:05:50;3.50;;;2.87;;
3779;SDS011;1905;52.482;9.802;2023-02-28T00:08:18;3.90;;;3.00;;
3779;SDS011;1905;52.482;9.802;2023-02-28T00:10:45;3.60;;;3.40;;
3779;SDS011;1905;52.482;9.802;2023-02-28T00:13:12;4.77;;;2.80;;
3779;SDS011;1905;52.482;9.802;2023-02-28T00:15:40;8.93;;;3.57;;
3779;SDS011;1905;52.482;9.802;2023-02-28T00:18:08;4.13;;;3.73;;
3779;SDS011;1905;52.482;9.802;2023-02-28T00:20:37;2.97;;;2.57;;
3779;SDS011;1905;52.482;9.802;2023-02-28T00:23:04;4.03;;;2.83;;
3779;SDS011;1905;52.482;9.802;2023-02-28T00:25:32;3.13;;;2.83;;
3779;SDS011;1905;52.482;9.802;2023-02-28T00:27:59;2.40;;;2.30;;
3779;SDS011;1905;52.482;9.802;2023-02-28T00:30:27;4.17;;;2.97;;
3779;SDS011;1905;52.482;9.802;2023-02-28T00:32:55;3.33;;;3.03;;
3779;SDS011;1905;52.482;9.802;2023-02-28T00:35:22;3.30;;;3.00;;
3779;SDS011;1905;52.482;9.802;2023-02-28T00:37:51;9.53;;;3.43;;
3779;SDS011;1905;52.482;9.802;2023-02-28T00:40:18;3.10;;;2.87;;
3779;SDS011;1905;52.482;9.802;2023-02-28T00:42:46;3.90;;;3.53;;
3779;SDS011;1905;52.482;9.802;2023-02-28T00:45:13;4.00;;;3.27;;
3779;SDS011;1905;52.482;9.802;2023-02-28T00:47:41;3.03;;;2.77;;
3779;SDS011;1905;52.482;9.802;2023-02-28T00:50:10;6.87;;;3.43;;
3779;SDS011;1905;52.482;9.802;2023-02-28T00:52:38;3.17;;;2.93;;
3779;SDS011;1905;52.482;9.802;2023-02-28T00:55:07;3.77;;;3.03;;
3779;SDS011;1905;52.482;9.802;2023-02-28T00:57:35;3.47;;;3.10;;
3779;SDS011;1905;52.482;9.802;2023-02-28T01:00:02;7.00;;;3.30;;
3779;SDS011;1905;52.482;9.802;2023-02-28T01:02:31;3.17;;;2.80;;
3779;SDS011;1905;52.482;9.802;2023-02-28T01:04:58;8.30;;;3.80;;
3779;SDS011;1905;52.482;9.802;2023-02-28T01:07:28;4.20;;;3.50;;
3779;SDS011;1905;52.482;9.802;2023-02-28T01:09:56;5.20;;;3.23;;
3779;SDS011;1905;52.482;9.802;2023-02-28T01:12:25;4.07;;;2.43;;
3779;SDS011;1905;52.482;9.802;2023-02-28T01:14:56;8.93;;;3.83;;
3779;SDS011;1905;52.482;9.802;2023-02-28T01:17:23;12.23;;;3.50;;
3779;SDS011;1905;52.482;9.802;2023-02-28T01:19:53;4.07;;;3.77;;
3779;SDS011;1905;52.482;9.802;2023-02-28T01:22:23;7.03;;;3.83;;
3779;SDS011;1905;52.482;9.802;2023-02-28T01:24:51;6.33;;;3.67;;
3779;SDS011;1905;52.482;9.802;2023-02-28T01:27:19;2.80;;;2.60;;
3779;SDS011;1905;52.482;9.802;2023-02-28T01:29:48;3.73;;;3.30;;
3779;SDS011;1905;52.482;9.802;2023-02-28T01:32:15;3.57;;;3.10;;
3779;SDS011;1905;52.482;9.802;2023-02-28T01:34:43;4.10;;;2.77;;
3779;SDS011;1905;52.482;9.802;2023-02-28T01:37:10;6.10;;;3.47;;
3779;SDS011;1905;52.482;9.802;2023-02-28T01:39:38;7.43;;;3.20;;
3779;SDS011;1905;52.482;9.802;2023-02-28T01:42:05;5.87;;;3.37;;
3779;SDS011;1905;52.482;9.802;2023-02-28T01:47:27;3.73;;;2.80;;
3779;SDS011;1905;52.482;9.802;2023-02-28T01:49:58;3.90;;;3.23;;
3779;SDS011;1905;52.482;9.802;2023-02-28T01:52:29;8.30;;;3.43;;
3779;SDS011;1905;52.482;9.802;2023-02-28T01:54:58;4.37;;;3.30;;
3779;SDS011;1905;52.482;9.802;2023-02-28T01:57:29;5.40;;;3.73;;
3779;SDS011;1905;52.482;9.802;2023-02-28T02:00:06;4.60;;;4.07;;
3779;SDS011;1905;52.482;9.802;2023-02-28T02:02:38;4.47;;;3.20;;
3779;SDS011;1905;52.482;9.802;2023-02-28T02:05:09;3.73;;;3.23;;
3779;SDS011;1905;52.482;9.802;2023-02-28T02:07:40;4.77;;;3.87;;
3779;SDS011;1905;52.482;9.802;2023-02-28T02:10:14;5.77;;;3.20;;
3779;SDS011;1905;52.482;9.802;2023-02-28T02:12:51;4.23;;;3.47;;
3779;SDS011;1905;52.482;9.802;2023-02-28T02:15:36;3.50;;;3.20;;
3779;SDS011;1905;52.482;9.802;2023-02-28T02:18:10;4.70;;;3.13;;
3779;SDS011;1905;52.482;9.802;2023-02-28T02:21:03;3.83;;;3.33;;
3779;SDS011;1905;52.482;9.802;2023-02-28T02:24:11;7.70;;;3.73;;
3779;SDS011;1905;52.482;9.802;2023-02-28T02:27:08;3.57;;;3.27;;
3779;SDS011;1905;52.482;9.802;2023-02-28T02:29:54;3.03;;;2.83;;
3779;SDS011;1905;52.482;9.802;2023-02-28T02:35:36;3.07;;;2.77;;
3779;SDS011;1905;52.482;9.802;2023-02-28T02:38:09;3.10;;;2.90;;
3779;SDS011;1905;52.482;9.802;2023-02-28T02:40:45;4.73;;;3.50;;
3779;SDS011;1905;52.482;9.802;2023-02-28T02:43:18;4.50;;;3.70;;
3779;SDS011;1905;52.482;9.802;2023-02-28T02:45:55;5.13;;;3.60;;
3779;SDS011;1905;52.482;9.802;2023-02-28T02:48:27;4.97;;;3.83;;
3779;SDS011;1905;52.482;9.802;2023-02-28T02:51:01;3.43;;;3.07;;
3779;SDS011;1905;52.482;9.802;2023-02-28T02:53:40;4.00;;;3.13;;
3779;SDS011;1905;52.482;9.802;2023-02-28T02:56:12;5.67;;;3.10;;
3779;SDS011;1905;52.482;9.802;2023-02-28T02:58:41;3.57;;;3.20;;
3779;SDS011;1905;52.482;9.802;2023-02-28T03:01:12;3.93;;;3.27;;
3779;SDS011;1905;52.482;9.802;2023-02-28T03:03:45;5.00;;;3.03;;
3779;SDS011;1905;52.482;9.802;2023-02-28T03:06:14;3.90;;;3.50;;
3779;SDS011;1905;52.482;9.802;2023-02-28T03:08:42;6.10;;;4.03;;
3779;SDS011;1905;52.482;9.802;2023-02-28T03:11:11;3.07;;;2.80;;
3779;SDS011;1905;52.482;9.802;2023-02-28T03:13:47;4.50;;;3.03;;
3779;SDS011;1905;52.482;9.802;2023-02-28T03:16:24;3.63;;;3.17;;
3779;SDS011;1905;52.482;9.802;2023-02-28T03:19:02;3.40;;;2.70;;
3779;SDS011;1905;52.482;9.802;2023-02-28T03:21:45;4.80;;;3.07;;
3779;SDS011;1905;52.482;9.802;2023-02-28T03:24:25;4.40;;;2.63;;
3779;SDS011;1905;52.482;9.802;2023-02-28T03:27:03;3.97;;;2.70;;
3779;SDS011;1905;52.482;9.802;2023-02-28T03:29:35;2.87;;;2.67;;
3779;SDS011;1905;52.482;9.802;2023-02-28T03:32:07;3.43;;;3.10;;
3779;SDS011;1905;52.482;9.802;2023-02-28T03:34:41;3.40;;;3.10;;
3779;SDS011;1905;52.482;9.802;2023-02-28T03:37:16;11.53;;;3.53;;
3779;SDS011;1905;52.482;9.802;2023-02-28T03:39:47;4.17;;;3.77;;
3779;SDS011;1905;52.482;9.802;2023-02-28T03:42:20;5.80;;;2.70;;
3779;SDS011;1905;52.482;9.802;2023-02-28T03:44:51;3.10;;;2.80;;
3779;SDS011;1905;52.482;9.802;2023-02-28T03:47:23;4.40;;;3.17;;
3779;SDS011;1905;52.482;9.802;2023-02-28T03:49:56;5.90;;;3.40;;
3779;SDS011;1905;52.482;9.802;2023-02-28T03:52:31;3.43;;;3.07;;
3779;SDS011;1905;52.482;9.802;2023-02-28T03:55:03;5.00;;;3.30;;
3779;SDS011;1905;52.482;9.802;2023-02-28T03:57:37;2.60;;;2.20;;
3779;SDS011;1905;52.482;9.802;2023-02-28T04:00:12;3.40;;;3.10;;
3779;SDS011;1905;52.482;9.802;2023-02-28T04:02:44;4.47;;;3.40;;
3779;SDS011;1905;52.482;9.802;2023-02-28T04:05:12;8.63;;;3.33;;
3779;SDS011;1905;52.482;9.802;2023-02-28T04:07:41;4.03;;;3.13;;
3779;SDS011;1905;52.482;9.802;2023-02-28T04:10:09;3.67;;;3.37;;
3779;SDS011;1905;52.482;9.802;2023-02-28T04:12:38;3.93;;;2.67;;
3779;SDS011;1905;52.482;9.802;2023-02-28T04:15:06;2.90;;;2.70;;
3779;SDS011;1905;52.482;9.802;2023-02-28T04:17:34;4.93;;;3.97;;
3779;SDS011;1905;52.482;9.802;2023-02-28T04:20:02;3.70;;;3.37;;
3779;SDS011;1905;52.482;9.802;2023-02-28T04:22:35;3.17;;;2.87;;
3779;SDS011;1905;52.482;9.802;2023-02-28T04:25:05;3.20;;;2.70;;
3779;SDS011;1905;52.482;9.802;2023-02-28T04:27:33;2.73;;;2.53;;
3779;SDS011;1905;52.482;9.802;2023-02-28T04:30:01;5.60;;;2.80;;
3779;SDS011;1905;52.482;9.802;2023-02-28T04:32:29;4.90;;;3.87;;
3779;SDS011;1905;52.482;9.802;2023-02-28T04:34:56;4.10;;;3.27;;
3779;SDS011;1905;52.482;9.802;2023-02-28T04:37:24;5.30;;;3.50;;
3779;SDS011;1905;52.482;9.802;2023-02-28T04:39:54;4.50;;;4.10;;
3779;SDS011;1905;52.482;9.802;2023-02-28T04:42:23;5.77;;;3.30;;
3779;SDS011;1905;52.482;9.802;2023-02-28T04:44:51;5.60;;;3.73;;
3779;SDS011;1905;52.482;9.802;2023-02-28T04:47:19;8.30;;;4.53;;
3779;SDS011;1905;52.482;9.802;2023-02-28T04:49:46;4.70;;;3.30;;
3779;SDS011;1905;52.482;9.802;2023-02-28T04:52:14;4.10;;;3.70;;
3779;SDS011;1905;52.482;9.802;2023-02-28T04:54:41;6.77;;;3.53;;
3779;SDS011;1905;52.482;9.802;2023-02-28T04:57:09;7.10;;;3.33;;
3779;SDS011;1905;52.482;9.802;2023-02-28T04:59:37;5.03;;;3.20;;
3779;SDS011;1905;52.482;9.802;2023-02-28T05:02:05;4.10;;;3.70;;
3779;SDS011;1905;52.482;9.802;2023-02-28T05:04:33;10.97;;;3.43;;
3779;SDS011;1905;52.482;9.802;2023-02-28T05:07:01;4.50;;;3.20;;
3779;SDS011;1905;52.482;9.802;2023-02-28T05:09:30;3.10;;;2.90;;
3779;SDS011;1905;52.482;9.802;2023-02-28T05:11:59;3.57;;;3.23;;
3779;SDS011;1905;52.482;9.802;2023-02-28T05:14:26;5.63;;;3.37;;
3779;SDS011;1905;52.482;9.802;2023-02-28T05:16:55;3.33;;;3.03;;
3779;SDS011;1905;52.482;9.802;2023-02-28T05:19:22;6.27;;;3.60;;
3779;SDS011;1905;52.482;9.802;2023-02-28T05:21:50;4.07;;;3.73;;
3779;SDS011;1905;52.482;9.802;2023-02-28T05:24:19;3.87;;;3.53;;
3779;SDS011;1905;52.482;9.802;2023-02-28T05:26:49;3.90;;;3.60;;
3779;SDS011;1905;52.482;9.802;2023-02-28T05:29:19;3.73;;;3.13;;
3779;SDS011;1905;52.482;9.802;2023-02-28T05:31:46;3.67;;;3.20;;
3779;SDS011;1905;52.482;9.802;2023-02-28T05:34:16;4.73;;;3.50;;
3779;SDS011;1905;52.482;9.802;2023-02-28T05:36:43;4.33;;;3.93;;
3779;SDS011;1905;52.482;9.802;2023-02-28T05:39:10;5.23;;;4.60;;
3779;SDS011;1905;52.482;9.802;2023-02-28T05:41:40;3.50;;;3.03;;
3779;SDS011;1905;52.482;9.802;2023-02-28T05:44:07;4.63;;;4.23;;
3779;SDS011;1905;52.482;9.802;2023-02-28T05:46:35;5.70;;;4.07;;
3779;SDS011;1905;52.482;9.802;2023-02-28T05:49:05;5.53;;;3.60;;
3779;SDS011;1905;52.482;9.802;2023-02-28T05:51:34;5.07;;;3.30;;
3779;SDS011;1905;52.482;9.802;2023-02-28T05:54:02;5.57;;;4.30;;
3779;SDS011;1905;52.482;9.802;2023-02-28T05:56:30;3.80;;;3.50;;
3779;SDS011;1905;52.482;9.802;2023-02-28T05:59:00;6.87;;;4.27;;
3779;SDS011;1905;52.482;9.802;2023-02-28T06:01:32;3.60;;;3.17;;
3779;SDS011;1905;52.482;9.802;2023-02-28T06:04:02;4.87;;;4.10;;
3779;SDS011;1905;52.482;9.802;2023-02-28T06:06:31;6.70;;;3.90;;
3779;SDS011;1905;52.482;9.802;2023-02-28T06:09:03;5.07;;;4.20;;
3779;SDS011;1905;52.482;9.802;2023-02-28T06:11:32;5.37;;;4.77;;
3779;SDS011;1905;52.482;9.802;2023-02-28T06:14:00;4.10;;;3.80;;
3779;SDS011;1905;52.482;9.802;2023-02-28T06:16:28;8.23;;;4.13;;
3779;SDS011;1905;52.482;9.802;2023-02-28T06:18:57;4.00;;;2.90;;
3779;SDS011;1905;52.482;9.802;2023-02-28T06:21:26;4.00;;;3.70;;
3779;SDS011;1905;52.482;9.802;2023-02-28T06:23:55;4.30;;;3.43;;
3779;SDS011;1905;52.482;9.802;2023-02-28T06:26:25;4.43;;;3.43;;
3779;SDS011;1905;52.482;9.802;2023-02-28T06:28:52;4.00;;;3.13;;
3779;SDS011;1905;52.482;9.802;2023-02-28T06:31:20;4.50;;;3.83;;
3779;SDS011;1905;52.482;9.802;2023-02-28T06:33:48;5.23;;;4.03;;
3779;SDS011;1905;52.482;9.802;2023-02-28T06:36:16;5.80;;;4.43;;
3779;SDS011;1905;52.482;9.802;2023-02-28T06:38:44;5.43;;;4.10;;
3779;SDS011;1905;52.482;9.802;2023-02-28T06:41:14;3.80;;;3.40;;
3779;SDS011;1905;52.482;9.802;2023-02-28T06:43:43;5.53;;;3.90;;
3779;SDS011;1905;52.482;9.802;2023-02-28T06:46:12;9.97;;;5.00;;
3779;SDS011;1905;52.482;9.802;2023-02-28T06:48:41;4.33;;;3.23;;
3779;SDS011;1905;52.482;9.802;2023-02-28T06:51:12;3.83;;;3.30;;
3779;SDS011;1905;52.482;9.802;2023-02-28T06:53:41;6.03;;;3.90;;
3779;SDS011;1905;52.482;9.802;2023-02-28T06:56:09;5.60;;;3.80;;
3779;SDS011;1905;52.482;9.802;2023-02-28T06:58:38;5.87;;;4.00;;
3779;SDS011;1905;52.482;9.802;2023-02-28T07:01:08;8.37;;;4.57;;
3779;SDS011;1905;52.482;9.802;2023-02-28T07:03:36;6.30;;;4.40;;
3779;SDS011;1905;52.482;9.802;2023-02-28T07:06:04;5.23;;;4.73;;
3779;SDS011;1905;52.482;9.802;2023-02-28T07:08:33;6.10;;;3.50;;
3779;SDS011;1905;52.482;9.802;2023-02-28T07:11:04;14.17;;;4.50;;
3779;SDS011;1905;52.482;9.802;2023-02-28T07:13:31;10.90;;;6.77;;
3779;SDS011;1905;52.482;9.802;2023-02-28T07:16:00;9.80;;;6.83;;
3779;SDS011;1905;52.482;9.802;2023-02-28T07:18:30;8.30;;;5.57;;
3779;SDS011;1905;52.482;9.802;2023-02-28T07:21:01;14.67;;;8.00;;
3779;SDS011;1905;52.482;9.802;2023-02-28T07:23:29;14.30;;;8.10;;
3779;SDS011;1905;52.482;9.802;2023-02-28T07:25:56;10.30;;;7.90;;
3779;SDS011;1905;52.482;9.802;2023-02-28T07:28:24;10.70;;;7.33;;
3779;SDS011;1905;52.482;9.802;2023-02-28T07:30:51;9.63;;;6.43;;
3779;SDS011;1905;52.482;9.802;2023-02-28T07:33:19;13.27;;;8.63;;
3779;SDS011;1905;52.482;9.802;2023-02-28T07:35:48;7.43;;;5.60;;
3779;SDS011;1905;52.482;9.802;2023-02-28T07:38:15;9.00;;;5.93;;
3779;SDS011;1905;52.482;9.802;2023-02-28T07:40:45;13.73;;;7.53;;
3779;SDS011;1905;52.482;9.802;2023-02-28T07:43:13;7.17;;;5.80;;
3779;SDS011;1905;52.482;9.802;2023-02-28T07:45:40;7.90;;;6.10;;
3779;SDS011;1905;52.482;9.802;2023-02-28T07:48:09;9.63;;;5.70;;
3779;SDS011;1905;52.482;9.802;2023-02-28T07:50:37;8.53;;;5.73;;
3779;SDS011;1905;52.482;9.802;2023-02-28T07:53:05;9.23;;;6.30;;
3779;SDS011;1905;52.482;9.802;2023-02-28T07:55:33;8.70;;;6.13;;
3779;SDS011;1905;52.482;9.802;2023-02-28T07:58:01;10.03;;;5.73;;
3779;SDS011;1905;52.482;9.802;2023-02-28T08:03:40;5.40;;;4.80;;
3779;SDS011;1905;52.482;9.802;2023-02-28T08:09:34;10.07;;;6.03;;
3779;SDS011;1905;52.482;9.802;2023-02-28T08:12:02;9.60;;;6.50;;
3779;SDS011;1905;52.482;9.802;2023-02-28T08:14:30;10.67;;;5.93;;
3779;SDS011;1905;52.482;9.802;2023-02-28T08:16:58;10.13;;;6.57;;
3779;SDS011;1905;52.482;9.802;2023-02-28T08:19:25;19.63;;;5.90;;
3779;SDS011;1905;52.482;9.802;2023-02-28T08:21:53;11.33;;;7.10;;
3779;SDS011;1905;52.482;9.802;2023-02-28T08:24:21;9.30;;;5.13;;
3779;SDS011;1905;52.482;9.802;2023-02-28T08:26:50;6.83;;;5.40;;
3779;SDS011;1905;52.482;9.802;2023-02-28T08:29:17;5.10;;;4.60;;
3779;SDS011;1905;52.482;9.802;2023-02-28T08:31:45;10.13;;;5.93;;
3779;SDS011;1905;52.482;9.802;2023-02-28T08:34:13;7.70;;;5.63;;
3779;SDS011;1905;52.482;9.802;2023-02-28T08:36:42;8.70;;;5.10;;
3779;SDS011;1905;52.482;9.802;2023-02-28T08:39:11;9.97;;;5.57;;
3779;SDS011;1905;52.482;9.802;2023-02-28T08:41:39;7.20;;;4.73;;
3779;SDS011;1905;52.482;9.802;2023-02-28T08:44:08;5.53;;;4.97;;
3779;SDS011;1905;52.482;9.802;2023-02-28T08:46:36;6.10;;;4.07;;
3779;SDS011;1905;52.482;9.802;2023-02-28T08:49:03;7.40;;;6.13;;
3779;SDS011;1905;52.482;9.802;2023-02-28T08:51:31;7.10;;;5.50;;
3779;SDS011;1905;52.482;9.802;2023-02-28T08:53:59;6.33;;;5.67;;
3779;SDS011;1905;52.482;9.802;2023-02-28T08:56:27;11.17;;;4.77;;
3779;SDS011;1905;52.482;9.802;2023-02-28T08:58:56;6.87;;;5.50;;
3779;SDS011;1905;52.482;9.802;2023-02-28T09:01:26;6.20;;;4.57;;
3779;SDS011;1905;52.482;9.802;2023-02-28T09:03:55;7.17;;;5.00;;
3779;SDS011;1905;52.482;9.802;2023-02-28T09:06:24;7.57;;;4.80;;
3779;SDS011;1905;52.482;9.802;2023-02-28T09:08:55;6.37;;;5.73;;
3779;SDS011;1905;52.482;9.802;2023-02-28T09:11:24;5.77;;;5.17;;
3779;SDS011;1905;52.482;9.802;2023-02-28T09:13:52;6.40;;;4.10;;
3779;SDS011;1905;52.482;9.802;2023-02-28T09:16:19;5.40;;;4.83;;
3779;SDS011;1905;52.482;9.802;2023-02-28T09:18:48;5.07;;;4.37;;
3779;SDS011;1905;52.482;9.802;2023-02-28T09:21:16;4.47;;;4.10;;
3779;SDS011;1905;52.482;9.802;2023-02-28T09:23:45;3.93;;;3.63;;
3779;SDS011;1905;52.482;9.802;2023-02-28T09:26:14;4.40;;;4.10;;
3779;SDS011;1905;52.482;9.802;2023-02-28T09:28:43;6.03;;;3.23;;
3779;SDS011;1905;52.482;9.802;2023-02-28T09:31:11;3.37;;;3.07;;
3779;SDS011;1905;52.482;9.802;2023-02-28T09:33:40;8.97;;;4.47;;
3779;SDS011;1905;52.482;9.802;2023-02-28T09:36:09;5.00;;;2.77;;
3779;SDS011;1905;52.482;9.802;2023-02-28T09:38:37;4.60;;;3.10;;
3779;SDS011;1905;52.482;9.802;2023-02-28T09:41:09;3.67;;;2.70;;
3779;SDS011;1905;52.482;9.802;2023-02-28T09:43:41;6.27;;;5.23;;
3779;SDS011;1905;52.482;9.802;2023-02-28T09:46:17;7.67;;;3.00;;
3779;SDS011;1905;52.482;9.802;2023-02-28T09:48:53;3.57;;;3.10;;
3779;SDS011;1905;52.482;9.802;2023-02-28T09:51:34;3.30;;;2.30;;
3779;SDS011;1905;52.482;9.802;2023-02-28T09:54:11;2.47;;;2.27;;
3779;SDS011;1905;52.482;9.802;2023-02-28T09:56:45;2.40;;;2.20;;
3779;SDS011;1905;52.482;9.802;2023-02-28T09:59:28;2.50;;;2.30;;
3779;SDS011;1905;52.482;9.802;2023-02-28T10:02:04;3.03;;;2.77;;
3779;SDS011;1905;52.482;9.802;2023-02-28T10:04:42;3.07;;;2.60;;
3779;SDS011;1905;52.482;9.802;2023-02-28T10:07:21;4.67;;;2.20;;
3779;SDS011;1905;52.482;9.802;2023-02-28T10:10:02;2.77;;;2.47;;
3779;SDS011;1905;52.482;9.802;2023-02-28T10:12:34;2.10;;;2.00;;
3779;SDS011;1905;52.482;9.802;2023-02-28T10:15:08;2.40;;;2.30;;
3779;SDS011;1905;52.482;9.802;2023-02-28T10:17:42;3.03;;;2.40;;
3779;SDS011;1905;52.482;9.802;2023-02-28T10:20:21;2.73;;;2.40;;
3779;SDS011;1905;52.482;9.802;2023-02-28T10:22:58;3.13;;;1.80;;
3779;SDS011;1905;52.482;9.802;2023-02-28T10:25:34;3.17;;;2.00;;
3779;SDS011;1905;52.482;9.802;2023-02-28T10:28:08;1.83;;;1.73;;
3779;SDS011;1905;52.482;9.802;2023-02-28T10:30:39;1.80;;;1.70;;
3779;SDS011;1905;52.482;9.802;2023-02-28T10:33:14;2.80;;;1.73;;
3779;SDS011;1905;52.482;9.802;2023-02-28T10:35:46;3.13;;;2.17;;
3779;SDS011;1905;52.482;9.802;2023-02-28T10:38:17;1.50;;;1.40;;
3779;SDS011;1905;52.482;9.802;2023-02-28T10:40:47;1.70;;;1.53;;
3779;SDS011;1905;52.482;9.802;2023-02-28T10:43:18;2.53;;;2.33;;
3779;SDS011;1905;52.482;9.802;2023-02-28T10:45:55;1.77;;;1.50;;
3779;SDS011;1905;52.482;9.802;2023-02-28T10:48:36;2.77;;;2.03;;
3779;SDS011;1905;52.482;9.802;2023-02-28T10:51:05;9.30;;;2.60;;
3779;SDS011;1905;52.482;9.802;2023-02-28T10:53:45;1.60;;;1.50;;
3779;SDS011;1905;52.482;9.802;2023-02-28T10:56:27;4.77;;;2.00;;
3779;SDS011;1905;52.482;9.802;2023-02-28T10:58:57;2.00;;;1.90;;
3779;SDS011;1905;52.482;9.802;2023-02-28T11:01:34;4.10;;;2.70;;
3779;SDS011;1905;52.482;9.802;2023-02-28T11:04:15;1.60;;;1.50;;
3779;SDS011;1905;52.482;9.802;2023-02-28T11:06:44;2.50;;;1.30;;
3779;SDS011;1905;52.482;9.802;2023-02-28T11:09:18;1.83;;;1.50;;
3779;SDS011;1905;52.482;9.802;2023-02-28T11:11:50;1.50;;;1.40;;
3779;SDS011;1905;52.482;9.802;2023-02-28T11:14:19;2.37;;;1.50;;
3779;SDS011;1905;52.482;9.802;2023-02-28T11:16:49;1.93;;;1.83;;
3779;SDS011;1905;52.482;9.802;2023-02-28T11:19:19;1.90;;;1.80;;
3779;SDS011;1905;52.482;9.802;2023-02-28T11:21:52;1.63;;;1.43;;
3779;SDS011;1905;52.482;9.802;2023-02-28T11:24:24;1.70;;;1.60;;
3779;SDS011;1905;52.482;9.802;2023-02-28T11:26:54;1.70;;;1.60;;
3779;SDS011;1905;52.482;9.802;2023-02-28T11:29:23;1.53;;;1.43;;
3779;SDS011;1905;52.482;9.802;2023-02-28T11:34:59;1.47;;;1.37;;
3779;SDS011;1905;52.482;9.802;2023-02-28T11:37:29;2.40;;;1.77;;
3779;SDS011;1905;52.482;9.802;2023-02-28T11:39:59;1.77;;;1.67;;
3779;SDS011;1905;52.482;9.802;2023-02-28T11:42:32;1.37;;;1.27;;
3779;SDS011;1905;52.482;9.802;2023-02-28T11:48:15;1.40;;;1.30;;
3779;SDS011;1905;52.482;9.802;2023-02-28T11:50:57;4.80;;;1.70;;
3779;SDS011;1905;52.482;9.802;2023-02-28T11:53:50;1.53;;;1.20;;
3779;SDS011;1905;52.482;9.802;2023-02-28T11:56:29;4.83;;;1.37;;
3779;SDS011;1905;52.482;9.802;2023-02-28T11:59:03;1.20;;;1.10;;
3779;SDS011;1905;52.482;9.802;2023-02-28T12:01:44;2.10;;;1.13;;
3779;SDS011;1905;52.482;9.802;2023-02-28T12:04:28;1.43;;;1.33;;
3779;SDS011;1905;52.482;9.802;2023-02-28T12:07:11;1.20;;;1.10;;
3779;SDS011;1905;52.482;9.802;2023-02-28T12:09:45;2.50;;;1.53;;
3779;SDS011;1905;52.482;9.802;2023-02-28T12:12:27;2.60;;;1.30;;
3779;SDS011;1905;52.482;9.802;2023-02-28T12:15:11;1.17;;;1.17;;
3779;SDS011;1905;52.482;9.802;2023-02-28T12:17:57;1.30;;;1.20;;
3779;SDS011;1905;52.482;9.802;2023-02-28T12:20:37;2.00;;;1.30;;
3779;SDS011;1905;52.482;9.802;2023-02-28T12:23:26;2.90;;;1.80;;
3779;SDS011;1905;52.482;9.802;2023-02-28T12:26:11;2.80;;;1.67;;
3779;SDS011;1905;52.482;9.802;2023-02-28T12:28:50;2.70;;;1.27;;
3779;SDS011;1905;52.482;9.802;2023-02-28T12:31:26;6.90;;;2.57;;
3779;SDS011;1905;52.482;9.802;2023-02-28T12:33:58;2.23;;;1.73;;
3779;SDS011;1905;52.482;9.802;2023-02-28T12:36:30;2.73;;;1.57;;
3779;SDS011;1905;52.482;9.802;2023-02-28T12:38:59;3.17;;;1.87;;
3779;SDS011;1905;52.482;9.802;2023-02-28T12:41:33;3.37;;;2.47;;
3779;SDS011;1905;52.482;9.802;2023-02-28T12:44:07;1.70;;;1.60;;
3779;SDS011;1905;52.482;9.802;2023-02-28T12:46:40;4.03;;;1.70;;
3779;SDS011;1905;52.482;9.802;2023-02-28T12:49:10;2.10;;;1.90;;
3779;SDS011;1905;52.482;9.802;2023-02-28T12:51:42;1.77;;;1.60;;
3779;SDS011;1905;52.482;9.802;2023-02-28T12:54:14;2.17;;;1.20;;
3779;SDS011;1905;52.482;9.802;2023-02-28T12:56:47;3.30;;;1.80;;
3779;SDS011;1905;52.482;9.802;2023-02-28T12:59:24;1.43;;;1.33;;
3779;SDS011;1905;52.482;9.802;2023-02-28T13:01:57;1.50;;;1.40;;
3779;SDS011;1905;52.482;9.802;2023-02-28T13:04:44;2.63;;;1.70;;
3779;SDS011;1905;52.482;9.802;2023-02-28T13:10:38;1.67;;;1.57;;
3779;SDS011;1905;52.482;9.802;2023-02-28T13:13:13;2.13;;;1.90;;
3779;SDS011;1905;52.482;9.802;2023-02-28T13:18:35;2.43;;;1.67;;
3779;SDS011;1905;52.482;9.802;2023-02-28T13:21:06;1.70;;;1.60;;
3779;SDS011;1905;52.482;9.802;2023-02-28T13:23:36;2.27;;;2.00;;
3779;SDS011;1905;52.482;9.802;2023-02-28T13:26:07;1.67;;;1.57;;
3779;SDS011;1905;52.482;9.802;2023-02-28T13:35:14;3.87;;;2.10;;
3779;SDS011;1905;52.482;9.802;2023-02-28T13:38:17;1.63;;;1.43;;
3779;SDS011;1905;52.482;9.802;2023-02-28T13:40:51;2.40;;;2.20;;
3779;SDS011;1905;52.482;9.802;2023-02-28T13:43:18;1.60;;;1.50;;
3779;SDS011;1905;52.482;9.802;2023-02-28T13:46:05;2.70;;;2.50;;
3779;SDS011;1905;52.482;9.802;2023-02-28T13:48:38;2.50;;;2.20;;
3779;SDS011;1905;52.482;9.802;2023-02-28T13:57:04;3.77;;;1.90;;
3779;SDS011;1905;52.482;9.802;2023-02-28T13:59:44;2.57;;;2.47;;
3779;SDS011;1905;52.482;9.802;2023-02-28T14:02:42;6.30;;;2.00;;
3779;SDS011;1905;52.482;9.802;2023-02-28T14:05:21;2.60;;;1.67;;
3779;SDS011;1905;52.482;9.802;2023-02-28T14:07:53;3.43;;;2.20;;
3779;SDS011;1905;52.482;9.802;2023-02-28T14:10:23;3.33;;;2.07;;
3779;SDS011;1905;52.482;9.802;2023-02-28T14:12:54;2.10;;;1.90;;
3779;SDS011;1905;52.482;9.802;2023-02-28T14:18:16;2.77;;;1.90;;
3779;SDS011;1905;52.482;9.802;2023-02-28T14:20:52;2.40;;;1.80;;
3779;SDS011;1905;52.482;9.802;2023-02-28T14:23:29;2.23;;;1.93;;
3779;SDS011;1905;52.482;9.802;2023-02-28T14:26:07;2.13;;;1.93;;
3779;SDS011;1905;52.482;9.802;2023-02-28T14:28:55;2.73;;;2.10;;
3779;SDS011;1905;52.482;9.802;2023-02-28T14:31:43;1.70;;;1.60;;
3779;SDS011;1905;52.482;9.802;2023-02-28T14:34:26;3.07;;;1.90;;
3779;SDS011;1905;52.482;9.802;2023-02-28T14:37:03;2.43;;;1.80;;
3779;SDS011;1905;52.482;9.802;2023-02-28T14:39:34;4.13;;;2.10;;
3779;SDS011;1905;52.482;9.802;2023-02-28T14:42:03;5.27;;;2.00;;
3779;SDS011;1905;52.482;9.802;2023-02-28T14:44:31;1.70;;;1.60;;
3779;SDS011;1905;52.482;9.802;2023-02-28T14:46:59;1.50;;;1.40;;
3779;SDS011;1905;52.482;9.802;2023-02-28T14:49:32;1.97;;;1.87;;
3779;SDS011;1905;52.482;9.802;2023-02-28T14:52:05;4.10;;;1.87;;
3779;SDS011;1905;52.482;9.802;2023-02-28T14:54:36;1.90;;;1.70;;
3779;SDS011;1905;52.482;9.802;2023-02-28T14:57:04;1.67;;;1.57;;
3779;SDS011;1905;52.482;9.802;2023-02-28T14:59:33;2.40;;;2.13;;
3779;SDS011;1905;52.482;9.802;2023-02-28T15:02:15;4.10;;;1.90;;
3779;SDS011;1905;52.482;9.802;2023-02-28T15:04:54;2.87;;;2.00;;
3779;SDS011;1905;52.482;9.802;2023-02-28T15:07:25;2.70;;;1.80;;
3779;SDS011;1905;52.482;9.802;2023-02-28T15:10:06;4.70;;;1.40;;
3779;SDS011;1905;52.482;9.802;2023-02-28T15:12:40;2.67;;;2.13;;
3779;SDS011;1905;52.482;9.802;2023-02-28T15:15:14;2.87;;;1.70;;
3779;SDS011;1905;52.482;9.802;2023-02-28T15:17:43;2.60;;;1.90;;
3779;SDS011;1905;52.482;9.802;2023-02-28T15:20:14;2.23;;;2.10;;
3779;SDS011;1905;52.482;9.802;2023-02-28T15:22:45;2.30;;;2.10;;
3779;SDS011;1905;52.482;9.802;2023-02-28T15:25:15;2.57;;;2.37;;
3779;SDS011;1905;52.482;9.802;2023-02-28T15:27:46;2.20;;;1.90;;
3779;SDS011;1905;52.482;9.802;2023-02-28T15:30:18;3.07;;;2.17;;
3779;SDS011;1905;52.482;9.802;2023-02-28T15:33:01;2.20;;;2.00;;
3779;SDS011;1905;52.482;9.802;2023-02-28T15:35:32;2.47;;;2.27;;
3779;SDS011;1905;52.482;9.802;2023-02-28T15:38:03;2.60;;;2.37;;
3779;SDS011;1905;52.482;9.802;2023-02-28T15:40:41;2.20;;;1.77;;
3779;SDS011;1905;52.482;9.802;2023-02-28T15:43:13;2.77;;;2.50;;
3779;SDS011;1905;52.482;9.802;2023-02-28T15:45:45;2.90;;;2.60;;
3779;SDS011;1905;52.482;9.802;2023-02-28T15:48:18;2.97;;;2.63;;
3779;SDS011;1905;52.482;9.802;2023-02-28T15:50:48;2.53;;;2.33;;
3779;SDS011;1905;52.482;9.802;2023-02-28T15:53:20;2.50;;;2.40;;
3779;SDS011;1905;52.482;9.802;2023-02-28T15:55:52;4.30;;;2.60;;
3779;SDS011;1905;52.482;9.802;2023-02-28T15:58:22;3.97;;;2.57;;
3779;SDS011;1905;52.482;9.802;2023-02-28T16:01:04;4.40;;;2.47;;
3779;SDS011;1905;52.482;9.802;2023-02-28T16:03:38;2.50;;;2.30;;
3779;SDS011;1905;52.482;9.802;2023-02-28T16:06:09;3.03;;;2.07;;
3779;SDS011;1905;52.482;9.802;2023-02-28T16:08:56;3.03;;;2.47;;
3779;SDS011;1905;52.482;9.802;2023-02-28T16:11:23;2.37;;;2.10;;
3779;SDS011;1905;52.482;9.802;2023-02-28T16:13:51;2.40;;;2.20;;
3779;SDS011;1905;52.482;9.802;2023-02-28T16:16:21;3.33;;;2.37;;
3779;SDS011;1905;52.482;9.802;2023-02-28T16:18:51;9.37;;;3.10;;
3779;SDS011;1905;52.482;9.802;2023-02-28T16:21:19;2.80;;;2.50;;
3779;SDS011;1905;52.482;9.802;2023-02-28T16:23:47;2.40;;;2.13;;